Time;durP1;ratioP1;P1;durP2;ratioP2;P2;SDS_P1;SDS_P2;PMS_P1;PMS_P2;Temp;Humidity;BMP_temperature;BMP_pressure;BME280_temperature;BME280_humidity;BME280_pressure;Samples;Min_cycle;Max_cycle;Signal;HPM_P1;HPM_P2
2022/05/28 00:00:24;;;;;;;36.53;6.07;;;;;;;;;;5040843;28;20118;-54
2022/05/28 00:02:51;;;;;;;30.73;6.15;;;;;;;;;;5042477;28;20033;-56
2022/05/28 00:05:18;;;;;;;18.48;5.80;;;;;;;;;;5041470;28;20029;-51
2022/05/28 00:07:45;;;;;;;29.02;5.43;;;;;;;;;;5036668;28;20033;-56
2022/05/28 00:10:14;;;;;;;31.08;6.38;;;;;;;;;;5039116;28;20021;-54
2022/05/28 00:12:42;;;;;;;46.03;6.85;;;;;;;;;;5039890;28;20045;-54
2022/05/28 00:15:09;;;;;;;37.22;6.32;;;;;;;;;;5041864;28;20418;-53
2022/05/28 00:17:36;;;;;;;44.63;7.10;;;;;;;;;;5040727;28;20166;-53
2022/05/28 00:20:04;;;;;;;32.97;6.03;;;;;;;;;;5040657;28;20524;-51
2022/05/28 00:22:31;;;;;;;24.90;5.95;;;;;;;;;;5041446;28;20083;-56
2022/05/28 00:24:58;;;;;;;29.15;6.18;;;;;;;;;;5041056;28;20029;-53
2022/05/28 00:27:25;;;;;;;35.33;5.82;;;;;;;;;;5042218;28;20034;-49
2022/05/28 00:29:53;;;;;;;31.98;6.40;;;;;;;;;;5041141;28;20084;-51
2022/05/28 00:32:20;;;;;;;24.67;5.38;;;;;;;;;;5053361;28;20040;-47
2022/05/28 00:34:48;;;;;;;41.65;7.38;;;;;;;;;;5042643;28;20040;-50
2022/05/28 00:37:15;;;;;;;36.80;6.75;;;;;;;;;;5052965;28;20087;-47
2022/05/28 00:39:41;;;;;;;45.05;7.13;;;;;;;;;;5053088;28;20477;-49
2022/05/28 00:42:09;;;;;;;39.08;7.75;;;;;;;;;;5053194;28;20029;-47
2022/05/28 00:44:36;;;;;;;36.45;7.13;;;;;;;;;;5051920;28;20487;-47
2022/05/28 00:47:04;;;;;;;31.45;7.40;;;;;;;;;;5053567;28;20107;-48
2022/05/28 00:49:32;;;;;;;36.08;10.35;;;;;;;;;;5053020;28;20037;-52
2022/05/28 00:52:01;;;;;;;45.10;12.70;;;;;;;;;;5050733;28;20072;-52
2022/05/28 00:54:33;;;;;;;69.55;27.13;;;;;;;;;;5053143;28;20495;-50
2022/05/28 00:57:02;;;;;;;90.10;33.95;;;;;;;;;;5052226;28;20075;-52
2022/05/28 00:59:29;;;;;;;89.38;36.88;;;;;;;;;;5052198;28;20032;-55
2022/05/28 01:02:09;;;;;;;105.20;40.72;;;;;;;;;;5052211;28;20040;-53
2022/05/28 01:04:40;;;;;;;96.72;39.75;;;;;;;;;;5051789;28;20024;-53
2022/05/28 01:07:16;;;;;;;94.93;40.08;;;;;;;;;;5051868;28;20398;-52
2022/05/28 01:09:58;;;;;;;94.63;39.55;;;;;;;;;;5052554;28;20483;-53
2022/05/28 01:12:48;;;;;;;104.55;39.00;;;;;;;;;;5051529;28;20552;-52
2022/05/28 01:15:24;;;;;;;102.63;41.35;;;;;;;;;;5052597;28;20036;-49
2022/05/28 01:17:54;;;;;;;90.97;34.95;;;;;;;;;;5052270;28;20570;-48
2022/05/28 01:20:41;;;;;;;104.82;41.90;;;;;;;;;;5051557;28;20426;-53
2022/05/28 01:23:25;;;;;;;89.15;36.80;;;;;;;;;;5052556;28;20025;-54
2022/05/28 01:26:12;;;;;;;72.30;31.70;;;;;;;;;;5044466;28;20422;-56
2022/05/28 01:28:41;;;;;;;75.80;30.77;;;;;;;;;;5001401;28;20041;-51
2022/05/28 01:31:09;;;;;;;78.88;32.25;;;;;;;;;;5039817;28;20486;-51
2022/05/28 01:33:37;;;;;;;77.38;31.90;;;;;;;;;;5040358;28;20043;-50
2022/05/28 01:36:08;;;;;;;74.63;30.80;;;;;;;;;;5038880;28;20037;-52
2022/05/28 01:38:37;;;;;;;77.35;30.60;;;;;;;;;;5039372;28;20546;-53
2022/05/28 01:41:06;;;;;;;69.22;30.40;;;;;;;;;;5039088;28;20040;-53
2022/05/28 01:43:38;;;;;;;68.63;29.33;;;;;;;;;;5041403;28;20061;-53
2022/05/28 01:46:06;;;;;;;71.07;28.97;;;;;;;;;;5040232;28;20751;-54
2022/05/28 01:48:34;;;;;;;76.00;28.73;;;;;;;;;;5039254;28;20138;-55
2022/05/28 01:51:02;;;;;;;76.45;29.85;;;;;;;;;;5040026;28;20036;-53
2022/05/28 01:56:16;;;;;;;63.95;25.65;;;;;;;;;;5036573;28;20053;-54
2022/05/28 01:58:43;;;;;;;60.63;25.08;;;;;;;;;;5038093;28;20040;-52
2022/05/28 02:01:10;;;;;;;65.13;26.10;;;;;;;;;;5041410;28;20091;-51
2022/05/28 02:03:39;;;;;;;73.82;27.55;;;;;;;;;;5042321;28;20025;-52
2022/05/28 02:06:06;;;;;;;65.35;26.30;;;;;;;;;;5046020;28;20044;-52
2022/05/28 02:08:36;;;;;;;71.20;24.80;;;;;;;;;;5031750;28;20420;-53
2022/05/28 02:11:12;;;;;;;59.97;23.00;;;;;;;;;;5033237;28;20650;-54
2022/05/28 02:14:01;;;;;;;56.20;23.10;;;;;;;;;;5041634;28;20045;-51
2022/05/28 02:16:31;;;;;;;54.40;21.92;;;;;;;;;;5011394;28;20556;-49
2022/05/28 02:19:01;;;;;;;56.25;22.92;;;;;;;;;;5037851;28;20048;-52
2022/05/28 02:21:43;;;;;;;60.75;21.88;;;;;;;;;;5040153;28;20079;-52
2022/05/28 02:24:17;;;;;;;55.80;21.67;;;;;;;;;;5039887;28;20025;-51
2022/05/28 02:26:55;;;;;;;48.08;20.05;;;;;;;;;;5037555;28;20033;-54
2022/05/28 02:29:22;;;;;;;48.10;19.98;;;;;;;;;;5030028;28;20025;-53
2022/05/28 02:31:50;;;;;;;55.60;20.58;;;;;;;;;;5029713;28;20037;-53
2022/05/28 02:34:18;;;;;;;57.13;22.00;;;;;;;;;;5031322;28;20033;-52
2022/05/28 02:36:45;;;;;;;43.75;20.40;;;;;;;;;;5042880;28;20051;-50
2022/05/28 02:39:13;;;;;;;57.85;20.42;;;;;;;;;;5047144;28;20052;-48
2022/05/28 02:41:40;;;;;;;50.88;18.38;;;;;;;;;;5044919;28;20083;-49
2022/05/28 02:44:09;;;;;;;44.47;17.90;;;;;;;;;;5050067;28;20470;-50
2022/05/28 02:46:36;;;;;;;42.88;18.45;;;;;;;;;;5047376;28;20490;-46
2022/05/28 02:49:03;;;;;;;48.33;17.95;;;;;;;;;;5051624;28;20119;-51
2022/05/28 02:51:31;;;;;;;51.22;19.95;;;;;;;;;;5050905;28;20044;-50
2022/05/28 02:53:58;;;;;;;43.88;17.95;;;;;;;;;;5051182;28;20048;-48
2022/05/28 02:56:25;;;;;;;35.95;18.23;;;;;;;;;;5051133;28;20126;-51
2022/05/28 02:58:52;;;;;;;35.65;16.35;;;;;;;;;;5050986;28;20433;-49
2022/05/28 03:01:30;;;;;;;42.58;17.70;;;;;;;;;;5051432;28;20029;-48
2022/05/28 03:03:57;;;;;;;37.40;16.73;;;;;;;;;;5049560;28;20696;-48
2022/05/28 03:06:24;;;;;;;43.13;16.60;;;;;;;;;;5051207;28;20037;-48
2022/05/28 03:08:51;;;;;;;40.80;16.25;;;;;;;;;;5041576;28;20021;-48
2022/05/28 03:11:18;;;;;;;36.53;16.85;;;;;;;;;;5030674;28;20087;-47
2022/05/28 03:13:45;;;;;;;35.10;14.32;;;;;;;;;;5030442;28;20038;-49
2022/05/28 03:16:13;;;;;;;38.63;16.15;;;;;;;;;;5029999;28;20377;-51
2022/05/28 03:18:40;;;;;;;44.35;16.52;;;;;;;;;;5031129;28;20053;-49
2022/05/28 03:21:07;;;;;;;40.00;15.00;;;;;;;;;;5030542;28;20398;-50
2022/05/28 03:23:35;;;;;;;34.60;14.63;;;;;;;;;;5039101;28;20071;-49
2022/05/28 03:26:12;;;;;;;35.90;13.95;;;;;;;;;;5038669;28;20025;-53
2022/05/28 03:28:39;;;;;;;36.38;14.57;;;;;;;;;;5041535;28;20482;-48
2022/05/28 03:31:06;;;;;;;33.63;13.27;;;;;;;;;;5038157;28;20037;-51
2022/05/28 03:33:33;;;;;;;32.75;13.75;;;;;;;;;;5043096;28;20048;-48
2022/05/28 03:36:00;;;;;;;33.80;13.65;;;;;;;;;;5049106;28;20025;-50
2022/05/28 03:38:27;;;;;;;33.42;13.98;;;;;;;;;;5050771;28;20029;-46
2022/05/28 03:40:54;;;;;;;32.35;14.27;;;;;;;;;;5050571;28;20077;-51
2022/05/28 03:43:21;;;;;;;39.78;13.82;;;;;;;;;;5050628;28;20032;-48
2022/05/28 03:45:48;;;;;;;34.17;14.05;;;;;;;;;;5051056;28;20033;-49
2022/05/28 03:48:15;;;;;;;29.77;12.95;;;;;;;;;;5052970;28;20057;-51
2022/05/28 03:50:42;;;;;;;33.67;12.82;;;;;;;;;;5050535;28;20029;-55
2022/05/28 03:53:09;;;;;;;23.60;11.80;;;;;;;;;;5045411;28;20072;-47
2022/05/28 03:55:37;;;;;;;36.08;12.18;;;;;;;;;;5033989;28;20435;-48
2022/05/28 03:58:04;;;;;;;37.10;13.52;;;;;;;;;;5034318;28;20023;-48
2022/05/28 04:00:31;;;;;;;21.45;10.60;;;;;;;;;;5034611;28;20109;-47
2022/05/28 04:02:58;;;;;;;27.85;11.45;;;;;;;;;;5034802;28;20088;-46
2022/05/28 04:05:25;;;;;;;31.48;11.75;;;;;;;;;;5034274;28;20472;-47
2022/05/28 04:07:52;;;;;;;30.60;11.75;;;;;;;;;;5034721;28;20506;-49
2022/05/28 04:10:20;;;;;;;26.85;12.27;;;;;;;;;;5034291;28;20549;-52
2022/05/28 04:12:46;;;;;;;32.53;12.50;;;;;;;;;;5034314;28;20084;-52
2022/05/28 04:15:14;;;;;;;25.90;10.65;;;;;;;;;;5034629;28;20487;-54
2022/05/28 04:17:41;;;;;;;27.08;12.30;;;;;;;;;;5033725;28;20021;-54
2022/05/28 04:20:09;;;;;;;28.80;10.98;;;;;;;;;;5034093;28;20061;-52
2022/05/28 04:22:36;;;;;;;26.98;11.48;;;;;;;;;;5034362;28;20045;-52
2022/05/28 04:25:03;;;;;;;28.88;11.63;;;;;;;;;;5034089;28;20477;-56
2022/05/28 04:27:30;;;;;;;25.45;11.55;;;;;;;;;;5034386;28;20017;-50
2022/05/28 04:29:59;;;;;;;26.92;11.77;;;;;;;;;;5033888;28;20384;-52
2022/05/28 04:32:26;;;;;;;21.83;10.13;;;;;;;;;;5034445;28;20033;-52
2022/05/28 04:34:53;;;;;;;21.73;10.23;;;;;;;;;;5034647;28;20033;-46
2022/05/28 04:37:20;;;;;;;19.70;10.05;;;;;;;;;;5033609;28;20037;-53
2022/05/28 04:39:47;;;;;;;26.33;11.90;;;;;;;;;;5034536;28;20030;-51
2022/05/28 04:42:14;;;;;;;21.80;10.05;;;;;;;;;;5034383;28;20025;-52
2022/05/28 04:44:41;;;;;;;25.92;10.73;;;;;;;;;;5033815;28;20029;-53
2022/05/28 04:47:08;;;;;;;26.02;10.40;;;;;;;;;;5034423;28;20069;-53
2022/05/28 04:49:35;;;;;;;25.13;10.02;;;;;;;;;;5033880;28;20025;-50
2022/05/28 04:52:02;;;;;;;26.52;11.27;;;;;;;;;;5034220;28;20040;-52
2022/05/28 04:54:29;;;;;;;24.00;11.27;;;;;;;;;;5033621;28;20039;-51
2022/05/28 04:56:56;;;;;;;21.23;9.85;;;;;;;;;;5034030;28;20040;-49
2022/05/28 04:59:23;;;;;;;21.05;10.27;;;;;;;;;;5033228;28;20028;-52
2022/05/28 05:01:50;;;;;;;23.10;11.18;;;;;;;;;;5033957;28;20021;-49
2022/05/28 05:04:17;;;;;;;20.23;9.82;;;;;;;;;;5033753;28;20036;-52
2022/05/28 05:06:44;;;;;;;21.17;9.50;;;;;;;;;;5033645;28;20080;-50
2022/05/28 05:09:10;;;;;;;19.35;8.95;;;;;;;;;;5033539;28;20079;-53
2022/05/28 05:11:37;;;;;;;18.20;9.63;;;;;;;;;;5032164;28;20105;-50
2022/05/28 05:14:04;;;;;;;18.88;9.20;;;;;;;;;;5033163;28;20103;-52
2022/05/28 05:16:31;;;;;;;20.38;8.95;;;;;;;;;;5033091;28;20026;-49
2022/05/28 05:18:58;;;;;;;21.50;8.85;;;;;;;;;;5033490;28;20025;-49
2022/05/28 05:21:25;;;;;;;15.90;8.90;;;;;;;;;;5033109;28;20029;-48
2022/05/28 05:23:52;;;;;;;17.92;9.20;;;;;;;;;;5033677;28;20071;-53
2022/05/28 05:26:20;;;;;;;18.75;8.65;;;;;;;;;;5033193;28;20065;-47
2022/05/28 05:28:47;;;;;;;20.67;8.63;;;;;;;;;;5033061;28;20064;-54
2022/05/28 05:31:15;;;;;;;21.08;9.32;;;;;;;;;;5033235;28;20041;-50
2022/05/28 05:33:42;;;;;;;16.52;8.65;;;;;;;;;;5032568;28;20087;-53
2022/05/28 05:36:09;;;;;;;21.30;8.65;;;;;;;;;;5033421;28;20025;-49
2022/05/28 05:38:36;;;;;;;17.20;8.48;;;;;;;;;;5032502;28;20029;-49
2022/05/28 05:41:03;;;;;;;20.63;7.95;;;;;;;;;;5032797;28;20021;-51
2022/05/28 05:43:30;;;;;;;17.67;7.78;;;;;;;;;;5032874;28;20029;-50
2022/05/28 05:45:59;;;;;;;15.45;7.63;;;;;;;;;;5032360;28;20033;-48
2022/05/28 05:48:26;;;;;;;17.27;8.23;;;;;;;;;;5033080;28;20098;-47
2022/05/28 05:50:53;;;;;;;16.42;7.90;;;;;;;;;;5032668;28;20110;-52
2022/05/28 05:53:20;;;;;;;15.88;7.80;;;;;;;;;;5032509;28;20030;-49
2022/05/28 05:55:47;;;;;;;17.45;8.65;;;;;;;;;;5032755;28;20048;-52
2022/05/28 05:58:14;;;;;;;16.45;8.10;;;;;;;;;;5032874;28;20453;-46
2022/05/28 06:00:41;;;;;;;13.93;7.70;;;;;;;;;;5032579;28;20096;-53
2022/05/28 06:03:08;;;;;;;14.80;7.28;;;;;;;;;;5032171;28;20033;-47
2022/05/28 06:05:35;;;;;;;13.48;7.80;;;;;;;;;;5032883;28;20021;-54
2022/05/28 06:08:02;;;;;;;15.52;7.15;;;;;;;;;;5032832;28;20034;-47
2022/05/28 06:10:29;;;;;;;14.27;7.57;;;;;;;;;;5031200;28;20498;-52
2022/05/28 06:12:56;;;;;;;14.85;7.10;;;;;;;;;;5031848;28;20057;-47
2022/05/28 06:15:23;;;;;;;15.07;7.50;;;;;;;;;;5032709;28;20033;-52
2022/05/28 06:17:50;;;;;;;15.80;7.13;;;;;;;;;;5031713;28;20022;-49
2022/05/28 06:20:17;;;;;;;14.60;7.10;;;;;;;;;;5030662;28;20033;-50
2022/05/28 06:22:44;;;;;;;13.15;7.05;;;;;;;;;;5032429;28;20021;-47
2022/05/28 06:25:11;;;;;;;12.00;7.32;;;;;;;;;;5032338;28;20044;-53
2022/05/28 06:27:38;;;;;;;12.45;6.70;;;;;;;;;;5031658;28;20044;-47
2022/05/28 06:30:05;;;;;;;12.73;6.70;;;;;;;;;;5032369;28;20131;-49
2022/05/28 06:32:32;;;;;;;11.95;6.90;;;;;;;;;;5031512;28;20068;-49
2022/05/28 06:34:59;;;;;;;11.27;6.60;;;;;;;;;;5031836;28;20487;-51
2022/05/28 06:37:26;;;;;;;17.85;7.18;;;;;;;;;;5031887;28;20048;-49
2022/05/28 06:39:53;;;;;;;11.43;6.18;;;;;;;;;;5031453;28;20029;-46
2022/05/28 06:42:20;;;;;;;14.40;6.22;;;;;;;;;;5031824;28;20033;-47
2022/05/28 06:44:48;;;;;;;13.20;6.78;;;;;;;;;;5031594;28;20391;-49
2022/05/28 06:47:15;;;;;;;16.45;7.15;;;;;;;;;;5031831;28;20063;-48
2022/05/28 06:49:42;;;;;;;11.82;6.63;;;;;;;;;;5031989;28;20086;-53
2022/05/28 06:52:09;;;;;;;14.15;6.07;;;;;;;;;;5032347;28;20487;-47
2022/05/28 06:54:36;;;;;;;11.93;6.75;;;;;;;;;;5031316;28;20171;-51
2022/05/28 06:57:03;;;;;;;12.38;6.47;;;;;;;;;;5032384;28;20104;-47
2022/05/28 06:59:30;;;;;;;13.10;6.15;;;;;;;;;;5031746;28;20029;-50
2022/05/28 07:01:57;;;;;;;8.52;5.55;;;;;;;;;;5030344;28;20398;-47
2022/05/28 07:04:24;;;;;;;13.43;6.05;;;;;;;;;;5032286;28;20159;-50
2022/05/28 07:06:52;;;;;;;11.95;5.63;;;;;;;;;;5031251;28;20030;-47
2022/05/28 07:09:19;;;;;;;9.63;5.20;;;;;;;;;;5031832;28;20423;-48
2022/05/28 07:11:46;;;;;;;8.65;5.43;;;;;;;;;;5031511;28;20365;-47
2022/05/28 07:14:13;;;;;;;10.43;5.20;;;;;;;;;;5032045;28;20113;-48
2022/05/28 07:16:40;;;;;;;10.05;5.22;;;;;;;;;;5031116;28;20044;-48
2022/05/28 07:19:07;;;;;;;10.93;5.55;;;;;;;;;;5031944;28;20655;-51
2022/05/28 07:21:34;;;;;;;9.73;4.75;;;;;;;;;;5031603;28;20022;-50
2022/05/28 07:24:01;;;;;;;10.00;5.30;;;;;;;;;;5035391;28;20080;-47
2022/05/28 07:26:28;;;;;;;12.27;6.05;;;;;;;;;;5035358;28;20036;-46
2022/05/28 07:28:55;;;;;;;8.57;4.70;;;;;;;;;;5034988;28;20029;-50
2022/05/28 07:31:22;;;;;;;9.57;5.03;;;;;;;;;;5035754;28;20036;-47
2022/05/28 07:33:49;;;;;;;8.05;4.97;;;;;;;;;;5035861;28;20112;-47
2022/05/28 07:36:18;;;;;;;8.43;4.85;;;;;;;;;;5035288;28;20026;-49
2022/05/28 07:38:45;;;;;;;8.10;4.75;;;;;;;;;;5035022;28;20022;-47
2022/05/28 07:41:14;;;;;;;11.50;5.00;;;;;;;;;;5034848;28;20129;-48
2022/05/28 07:43:41;;;;;;;8.43;4.47;;;;;;;;;;5035198;28;20096;-50
2022/05/28 07:46:21;;;;;;;7.18;4.57;;;;;;;;;;5035071;28;20479;-48
2022/05/28 07:48:49;;;;;;;9.68;5.38;;;;;;;;;;5035136;28;20041;-51
2022/05/28 07:51:16;;;;;;;9.52;4.53;;;;;;;;;;5034475;28;20467;-47
2022/05/28 07:53:44;;;;;;;8.90;4.63;;;;;;;;;;5035480;28;20038;-47
2022/05/28 07:56:11;;;;;;;11.50;4.25;;;;;;;;;;5035054;28;20026;-50
2022/05/28 07:58:38;;;;;;;7.72;4.60;;;;;;;;;;5034707;28;20048;-48
2022/05/28 08:01:06;;;;;;;7.28;4.80;;;;;;;;;;5033127;28;20030;-52
2022/05/28 08:03:33;;;;;;;7.40;4.68;;;;;;;;;;5035386;28;20490;-47
2022/05/28 08:06:01;;;;;;;7.93;5.00;;;;;;;;;;5034781;28;20029;-46
2022/05/28 08:08:28;;;;;;;9.27;4.28;;;;;;;;;;5017288;28;20030;-49
2022/05/28 08:10:55;;;;;;;10.88;4.60;;;;;;;;;;5033592;28;20111;-47
2022/05/28 08:13:23;;;;;;;10.48;4.40;;;;;;;;;;5033837;28;20056;-50
2022/05/28 08:15:51;;;;;;;8.65;4.13;;;;;;;;;;5034979;28;20036;-48
2022/05/28 08:18:19;;;;;;;7.65;3.70;;;;;;;;;;5034223;28;20470;-49
2022/05/28 08:23:31;;;;;;;8.73;4.38;;;;;;;;;;5036114;28;20509;-50
2022/05/28 08:25:58;;;;;;;7.88;4.05;;;;;;;;;;5034118;28;20034;-50
2022/05/28 08:28:25;;;;;;;6.60;4.18;;;;;;;;;;5034533;28;20040;-54
2022/05/28 08:30:53;;;;;;;6.45;3.80;;;;;;;;;;5033986;28;20017;-52
2022/05/28 08:33:21;;;;;;;7.60;3.65;;;;;;;;;;5033155;28;20022;-55
2022/05/28 08:35:50;;;;;;;5.85;3.75;;;;;;;;;;5033912;28;20041;-50
2022/05/28 08:38:18;;;;;;;8.70;3.67;;;;;;;;;;5034148;28;20036;-51
2022/05/28 08:41:04;;;;;;;6.95;4.07;;;;;;;;;;5033631;28;20110;-54
2022/05/28 08:43:33;;;;;;;6.20;3.85;;;;;;;;;;5033769;28;20041;-53
2022/05/28 08:46:00;;;;;;;6.38;3.70;;;;;;;;;;5034318;28;20472;-52
2022/05/28 08:48:47;;;;;;;8.07;3.50;;;;;;;;;;5034410;28;20039;-54
2022/05/28 08:51:34;;;;;;;5.85;3.50;;;;;;;;;;5033749;28;20487;-54
2022/05/28 08:54:14;;;;;;;6.78;3.70;;;;;;;;;;5033148;28;20538;-52
2022/05/28 08:56:41;;;;;;;6.22;3.58;;;;;;;;;;5034308;28;20480;-52
2022/05/28 08:59:12;;;;;;;7.22;3.88;;;;;;;;;;5033261;28;20104;-52
2022/05/28 09:01:40;;;;;;;5.88;3.47;;;;;;;;;;5034083;28;20026;-49
2022/05/28 09:04:22;;;;;;;5.32;3.40;;;;;;;;;;5033284;28;20108;-54
2022/05/28 09:06:53;;;;;;;6.13;3.30;;;;;;;;;;5033261;28;20026;-51
2022/05/28 09:09:26;;;;;;;5.20;2.83;;;;;;;;;;5033888;28;20466;-52
2022/05/28 09:11:57;;;;;;;6.85;3.83;;;;;;;;;;5033884;28;20646;-50
2022/05/28 09:14:29;;;;;;;5.80;3.20;;;;;;;;;;5033200;28;20026;-53
2022/05/28 09:16:57;;;;;;;3.75;2.90;;;;;;;;;;5032936;28;20377;-52
2022/05/28 09:19:33;;;;;;;5.68;3.33;;;;;;;;;;5033739;28;20030;-49
2022/05/28 09:22:00;;;;;;;6.40;2.80;;;;;;;;;;5033285;28;20030;-47
2022/05/28 09:24:29;;;;;;;5.00;3.30;;;;;;;;;;5033072;28;20041;-52
2022/05/28 09:27:05;;;;;;;4.03;2.78;;;;;;;;;;5032906;28;20032;-55
2022/05/28 09:29:38;;;;;;;5.78;3.22;;;;;;;;;;5033153;28;20391;-47
2022/05/28 09:32:13;;;;;;;4.95;3.22;;;;;;;;;;5033257;28;20022;-46
2022/05/28 09:35:03;;;;;;;4.30;3.10;;;;;;;;;;5032414;28;20033;-50
2022/05/28 09:37:46;;;;;;;6.43;3.38;;;;;;;;;;5025267;28;20081;-49
2022/05/28 09:40:18;;;;;;;5.10;3.15;;;;;;;;;;5033153;28;20448;-50
2022/05/28 09:43:16;;;;;;;5.22;2.97;;;;;;;;;;5032743;28;20052;-52
2022/05/28 09:46:12;;;;;;;5.50;3.05;;;;;;;;;;5031909;28;20360;-53
2022/05/28 09:48:39;;;;;;;4.18;2.72;;;;;;;;;;5032374;28;20037;-53
2022/05/28 09:51:20;;;;;;;4.28;2.55;;;;;;;;;;5033156;28;20108;-47
2022/05/28 09:56:38;;;;;;;6.07;3.63;;;;;;;;;;5033143;28;20514;-53
2022/05/28 09:59:19;;;;;;;5.18;2.60;;;;;;;;;;5030691;28;20064;-47
2022/05/28 10:02:08;;;;;;;4.30;2.58;;;;;;;;;;5033096;28;20029;-52
2022/05/28 10:04:54;;;;;;;7.10;3.00;;;;;;;;;;5032294;28;20079;-48
2022/05/28 10:07:28;;;;;;;4.15;2.70;;;;;;;;;;5032389;28;20029;-48
2022/05/28 10:09:55;;;;;;;4.93;2.35;;;;;;;;;;5032436;28;20523;-52
2022/05/28 10:12:24;;;;;;;5.28;2.80;;;;;;;;;;5031643;28;20450;-52
2022/05/28 10:15:01;;;;;;;7.18;2.60;;;;;;;;;;5033000;28;20383;-49
2022/05/28 10:17:30;;;;;;;4.20;2.50;;;;;;;;;;5032235;28;20033;-51
2022/05/28 10:19:57;;;;;;;6.20;2.90;;;;;;;;;;5032317;28;20034;-49
2022/05/28 10:22:25;;;;;;;5.50;2.50;;;;;;;;;;5031685;28;20028;-48
2022/05/28 10:24:55;;;;;;;5.75;2.75;;;;;;;;;;5032060;28;20029;-50
2022/05/28 10:27:47;;;;;;;3.85;2.47;;;;;;;;;;5032303;28;20017;-52
2022/05/28 10:30:46;;;;;;;4.97;2.58;;;;;;;;;;5032507;28;20475;-52
2022/05/28 10:33:21;;;;;;;3.47;2.50;;;;;;;;;;4999366;28;20454;-52
2022/05/28 10:35:48;;;;;;;5.18;2.45;;;;;;;;;;5030420;28;20399;-50
2022/05/28 10:38:17;;;;;;;4.78;2.22;;;;;;;;;;5031646;28;20035;-53
2022/05/28 10:40:51;;;;;;;3.83;2.10;;;;;;;;;;5032033;28;20032;-53
2022/05/28 10:43:39;;;;;;;3.60;2.13;;;;;;;;;;5032172;28;20037;-49
2022/05/28 10:46:06;;;;;;;3.25;2.20;;;;;;;;;;5031728;28;20025;-49
2022/05/28 10:48:49;;;;;;;2.85;2.10;;;;;;;;;;5031992;28;20041;-49
2022/05/28 10:51:22;;;;;;;5.10;2.25;;;;;;;;;;5031605;28;20073;-52
2022/05/28 10:54:07;;;;;;;5.05;2.30;;;;;;;;;;5031272;28;20044;-47
2022/05/28 10:56:55;;;;;;;3.15;2.28;;;;;;;;;;5031269;28;20518;-47
2022/05/28 10:59:22;;;;;;;3.97;1.90;;;;;;;;;;5031835;28;20034;-51
2022/05/28 11:02:09;;;;;;;5.13;2.30;;;;;;;;;;5031374;28;20387;-53
2022/05/28 11:04:39;;;;;;;3.33;1.80;;;;;;;;;;5031455;28;20029;-50
2022/05/28 11:07:09;;;;;;;3.63;2.00;;;;;;;;;;5031893;28;20105;-48
2022/05/28 11:09:42;;;;;;;3.55;2.10;;;;;;;;;;5031232;28;20451;-48
2022/05/28 11:12:20;;;;;;;5.78;2.53;;;;;;;;;;5031855;28;20057;-47
2022/05/28 11:15:02;;;;;;;4.13;1.98;;;;;;;;;;5031229;28;20038;-51
2022/05/28 11:17:35;;;;;;;2.95;1.80;;;;;;;;;;5031565;28;20055;-49
2022/05/28 11:20:02;;;;;;;4.68;2.35;;;;;;;;;;5031362;28;20603;-50
2022/05/28 11:22:51;;;;;;;3.33;1.85;;;;;;;;;;5032266;28;20448;-47
2022/05/28 11:25:26;;;;;;;4.18;2.35;;;;;;;;;;5031133;28;20083;-50
2022/05/28 11:28:20;;;;;;;5.07;2.53;;;;;;;;;;5031351;28;20039;-47
2022/05/28 11:30:49;;;;;;;3.63;2.05;;;;;;;;;;5031170;28;20391;-47
2022/05/28 11:33:16;;;;;;;3.75;2.20;;;;;;;;;;5030965;28;20118;-50
2022/05/28 11:35:55;;;;;;;5.05;2.00;;;;;;;;;;5032004;28;20052;-46
2022/05/28 11:38:22;;;;;;;6.50;2.38;;;;;;;;;;5030999;28;20022;-48
2022/05/28 11:40:56;;;;;;;5.90;2.00;;;;;;;;;;5031504;28;20513;-48
2022/05/28 11:43:28;;;;;;;4.00;2.05;;;;;;;;;;5031210;28;20028;-46
2022/05/28 11:45:58;;;;;;;6.43;2.30;;;;;;;;;;5031865;28;20103;-50
2022/05/28 11:51:37;;;;;;;3.97;2.17;;;;;;;;;;5011330;28;20103;-49
2022/05/28 11:54:07;;;;;;;3.22;2.15;;;;;;;;;;5029813;28;20033;-49
2022/05/28 11:56:34;;;;;;;5.38;2.15;;;;;;;;;;5030864;28;20045;-47
2022/05/28 11:59:33;;;;;;;4.82;2.08;;;;;;;;;;5029606;28;20026;-47
2022/05/28 12:02:04;;;;;;;5.10;2.13;;;;;;;;;;5008673;28;20033;-49
2022/05/28 12:04:31;;;;;;;3.05;2.00;;;;;;;;;;5030624;28;20538;-51
2022/05/28 12:07:02;;;;;;;5.40;2.00;;;;;;;;;;5031164;28;20581;-48
2022/05/28 12:09:32;;;;;;;4.07;1.90;;;;;;;;;;5032435;28;20491;-47
2022/05/28 12:12:13;;;;;;;6.03;1.90;;;;;;;;;;5033920;28;20065;-47
2022/05/28 12:14:41;;;;;;;4.97;2.30;;;;;;;;;;5034773;28;20033;-45
2022/05/28 12:17:11;;;;;;;5.85;2.55;;;;;;;;;;5034374;28;20033;-45
2022/05/28 12:19:55;;;;;;;5.28;2.13;;;;;;;;;;5034696;28;20033;-49
2022/05/28 12:22:33;;;;;;;4.05;2.05;;;;;;;;;;5034289;28;20025;-47
2022/05/28 12:25:05;;;;;;;5.25;2.50;;;;;;;;;;5040936;28;20051;-51
2022/05/28 12:27:37;;;;;;;9.27;2.42;;;;;;;;;;5054196;28;20037;-49
2022/05/28 12:30:08;;;;;;;4.47;2.20;;;;;;;;;;5053591;28;20025;-49
2022/05/28 12:32:49;;;;;;;3.70;1.95;;;;;;;;;;5054045;28;20033;-47
2022/05/28 12:35:16;;;;;;;3.28;2.10;;;;;;;;;;5054398;28;20040;-47
2022/05/28 12:37:46;;;;;;;3.67;1.90;;;;;;;;;;5054430;28;20487;-46
2022/05/28 12:40:28;;;;;;;7.55;2.22;;;;;;;;;;5054318;28;20390;-46
2022/05/28 12:42:55;;;;;;;5.07;2.28;;;;;;;;;;5053717;28;20115;-45
2022/05/28 12:45:25;;;;;;;3.00;1.95;;;;;;;;;;5053622;28;20368;-46
2022/05/28 12:47:52;;;;;;;3.80;2.22;;;;;;;;;;5054055;28;20100;-45
2022/05/28 12:50:25;;;;;;;4.10;2.22;;;;;;;;;;5053896;28;20059;-48
2022/05/28 12:53:07;;;;;;;3.25;1.77;;;;;;;;;;5045016;28;20540;-47
2022/05/28 12:55:43;;;;;;;3.75;2.03;;;;;;;;;;5040882;28;20549;-45
2022/05/28 12:58:25;;;;;;;7.32;2.55;;;;;;;;;;5044260;28;20033;-48
2022/05/28 13:00:54;;;;;;;4.13;2.35;;;;;;;;;;5045781;28;20644;-45
2022/05/28 13:03:23;;;;;;;5.25;2.20;;;;;;;;;;5038223;28;20033;-48
2022/05/28 13:06:05;;;;;;;8.85;2.60;;;;;;;;;;5036480;28;20056;-49
2022/05/28 13:08:33;;;;;;;7.05;2.50;;;;;;;;;;5052303;28;20029;-48
2022/05/28 13:11:05;;;;;;;13.15;2.45;;;;;;;;;;5033526;28;20049;-49
2022/05/28 13:13:40;;;;;;;7.30;2.67;;;;;;;;;;5031595;28;20060;-45
2022/05/28 13:16:29;;;;;;;6.75;2.70;;;;;;;;;;5032799;28;20438;-50
2022/05/28 13:19:14;;;;;;;5.97;2.20;;;;;;;;;;5025792;28;20103;-46
2022/05/28 13:21:41;;;;;;;8.32;2.55;;;;;;;;;;5032554;28;20029;-48
2022/05/28 13:24:23;;;;;;;4.75;2.10;;;;;;;;;;5043509;28;20060;-48
2022/05/28 13:27:12;;;;;;;5.95;2.70;;;;;;;;;;5052010;28;20041;-47
2022/05/28 13:29:56;;;;;;;3.80;2.30;;;;;;;;;;5051859;28;20032;-47
2022/05/28 13:32:29;;;;;;;5.78;2.47;;;;;;;;;;5050489;28;20079;-49
2022/05/28 13:35:00;;;;;;;4.35;2.10;;;;;;;;;;5050878;28;20056;-49
2022/05/28 13:37:28;;;;;;;14.98;2.60;;;;;;;;;;5051689;28;20071;-50
2022/05/28 13:39:56;;;;;;;7.40;2.60;;;;;;;;;;5051883;28;20028;-52
2022/05/28 13:42:24;;;;;;;7.93;2.70;;;;;;;;;;5051234;28;20059;-50
2022/05/28 13:44:52;;;;;;;8.55;2.85;;;;;;;;;;5050883;28;20561;-52
2022/05/28 13:47:19;;;;;;;8.20;2.67;;;;;;;;;;5041181;28;20029;-54
2022/05/28 13:49:53;;;;;;;5.60;2.50;;;;;;;;;;5029807;28;20041;-54
2022/05/28 13:52:20;;;;;;;9.52;2.85;;;;;;;;;;5031809;28;20036;-49
2022/05/28 13:54:59;;;;;;;8.88;2.67;;;;;;;;;;5024333;28;20041;-49
2022/05/28 13:57:39;;;;;;;6.63;2.33;;;;;;;;;;5012614;28;20041;-53
2022/05/28 14:00:17;;;;;;;12.52;2.80;;;;;;;;;;5011822;28;20084;-56
2022/05/28 14:02:55;;;;;;;10.65;2.83;;;;;;;;;;5018449;28;20029;-49
2022/05/28 14:05:33;;;;;;;11.93;3.33;;;;;;;;;;5030758;28;20053;-56
2022/05/28 14:08:20;;;;;;;22.23;4.30;;;;;;;;;;5032481;28;20025;-53
2022/05/28 14:10:47;;;;;;;21.98;4.35;;;;;;;;;;5032026;28;20033;-48
2022/05/28 14:13:24;;;;;;;12.57;3.22;;;;;;;;;;5031091;28;20057;-52
2022/05/28 14:15:53;;;;;;;12.45;3.13;;;;;;;;;;5030881;28;20045;-50
2022/05/28 14:18:24;;;;;;;7.70;2.90;;;;;;;;;;5032332;28;20025;-53
2022/05/28 14:20:54;;;;;;;16.52;3.53;;;;;;;;;;5031336;28;20040;-54
2022/05/28 14:23:27;;;;;;;16.70;3.65;;;;;;;;;;5032083;28;20076;-49
2022/05/28 14:25:55;;;;;;;10.63;2.97;;;;;;;;;;5031718;28;20029;-51
2022/05/28 14:28:23;;;;;;;11.88;2.67;;;;;;;;;;5031669;28;20109;-52
2022/05/28 14:30:50;;;;;;;14.68;3.80;;;;;;;;;;5031675;28;20045;-51
2022/05/28 14:33:28;;;;;;;16.13;3.25;;;;;;;;;;5031281;28;20039;-54
2022/05/28 14:36:03;;;;;;;12.88;2.88;;;;;;;;;;5032075;28;20037;-52
2022/05/28 14:38:30;;;;;;;15.07;3.38;;;;;;;;;;5031990;28;20017;-51
2022/05/28 14:40:59;;;;;;;6.63;2.42;;;;;;;;;;5031629;28;20071;-51
2022/05/28 14:43:31;;;;;;;8.07;2.90;;;;;;;;;;5031324;28;20049;-48
2022/05/28 14:46:21;;;;;;;7.30;2.75;;;;;;;;;;5031596;28;20061;-50
2022/05/28 14:48:48;;;;;;;12.30;3.20;;;;;;;;;;5023939;28;20034;-50
2022/05/28 14:51:20;;;;;;;10.25;2.88;;;;;;;;;;5032019;28;20061;-53
2022/05/28 14:53:51;;;;;;;5.50;2.63;;;;;;;;;;5031524;28;20068;-51
2022/05/28 14:56:21;;;;;;;8.38;2.65;;;;;;;;;;5031597;28;20033;-53
2022/05/28 14:58:50;;;;;;;7.85;2.75;;;;;;;;;;5031829;28;20563;-53
2022/05/28 15:01:25;;;;;;;8.57;2.90;;;;;;;;;;5031587;28;20049;-50
2022/05/28 15:03:52;;;;;;;7.60;2.90;;;;;;;;;;5031409;28;20033;-50